createdAt,value
2022-10-16T00:01:41.562Z,88.66
2022-10-16T00:04:09.908Z,89.63
2022-10-16T00:06:36.892Z,89.12
2022-10-16T00:09:04.216Z,88.80
2022-10-16T00:11:38.692Z,89.05
2022-10-16T00:14:12.972Z,87.91
2022-10-16T00:16:40.493Z,89.47
2022-10-16T00:19:07.852Z,89.10
2022-10-16T00:21:35.262Z,88.28
2022-10-16T00:24:11.968Z,88.85
2022-10-16T00:26:40.449Z,87.63
2022-10-16T00:29:09.660Z,88.81
2022-10-16T00:31:37.094Z,89.28
2022-10-16T00:34:04.137Z,89.18
2022-10-16T00:36:31.747Z,89.53
2022-10-16T00:41:34.366Z,87.57
2022-10-16T00:44:25.057Z,87.57
2022-10-16T00:46:52.402Z,88.19
2022-10-16T00:49:21.661Z,86.37
2022-10-16T00:51:54.862Z,88.42
2022-10-16T00:54:30.431Z,89.77
2022-10-16T00:57:05.954Z,88.38
2022-10-16T00:59:42.512Z,88.57
2022-10-16T01:02:16.258Z,87.50
2022-10-16T01:04:55.001Z,88.63
2022-10-16T01:08:06.715Z,88.51
2022-10-16T01:10:59.226Z,88.77
2022-10-16T01:13:42.415Z,87.87
2022-10-16T01:16:25.288Z,87.85
2022-10-16T01:19:22.671Z,87.81
2022-10-16T01:21:51.983Z,87.59
2022-10-16T01:27:34.036Z,87.25
2022-10-16T01:30:26.404Z,86.66
2022-10-16T01:33:43.210Z,87.24
2022-10-16T01:36:36.378Z,86.86
2022-10-16T01:39:06.174Z,86.24
2022-10-16T01:41:40.231Z,86.53
2022-10-16T01:44:22.240Z,87.39
2022-10-16T01:46:53.630Z,87.04
2022-10-16T01:49:25.620Z,86.67
2022-10-16T01:51:58.757Z,86.66
2022-10-16T01:54:30.475Z,86.79
2022-10-16T01:56:59.028Z,86.19
2022-10-16T01:59:30.531Z,86.28
2022-10-16T02:02:04.815Z,86.26
2022-10-16T02:04:55.733Z,86.06
2022-10-16T02:07:23.717Z,85.99
2022-10-16T02:09:50.992Z,86.46
2022-10-16T02:12:33.455Z,86.93
2022-10-16T02:15:00.452Z,86.88
2022-10-16T02:17:27.944Z,86.64
2022-10-16T02:19:57.797Z,86.66
2022-10-16T02:22:40.265Z,86.25
2022-10-16T02:25:40.994Z,85.71
2022-10-16T02:28:27.184Z,86.16
2022-10-16T02:31:09.499Z,86.29
2022-10-16T02:33:39.701Z,86.52
2022-10-16T02:36:07.919Z,85.83
2022-10-16T02:38:35.703Z,86.78
2022-10-16T02:41:02.898Z,85.89
2022-10-16T02:43:30.393Z,86.00
2022-10-16T02:45:57.324Z,85.67
2022-10-16T02:48:24.264Z,85.13
2022-10-16T02:50:52.016Z,85.36
2022-10-16T02:53:18.950Z,85.59
2022-10-16T02:55:45.975Z,85.46
2022-10-16T02:58:12.894Z,85.27
2022-10-16T03:00:39.874Z,85.86
2022-10-16T03:03:06.878Z,86.03
2022-10-16T03:05:33.940Z,85.82
2022-10-16T03:08:01.633Z,86.09
2022-10-16T03:10:28.960Z,85.24
2022-10-16T03:12:55.874Z,85.58
2022-10-16T03:15:22.818Z,85.36
2022-10-16T03:17:50.003Z,85.68
2022-10-16T03:20:16.918Z,86.75
2022-10-16T03:22:43.801Z,85.90
2022-10-16T03:25:10.764Z,86.05
2022-10-16T03:27:37.766Z,86.14
2022-10-16T03:30:05.298Z,86.37
2022-10-16T03:32:32.303Z,86.98
2022-10-16T03:34:59.338Z,87.02
2022-10-16T03:37:26.466Z,87.55
2022-10-16T03:39:53.930Z,87.43
2022-10-16T03:42:21.007Z,87.27
2022-10-16T03:44:47.942Z,87.43
2022-10-16T03:47:14.852Z,87.50
2022-10-16T03:49:41.811Z,87.61
2022-10-16T03:52:08.767Z,87.38
2022-10-16T03:54:35.738Z,87.30
2022-10-16T03:57:02.692Z,87.07
2022-10-16T03:59:29.627Z,86.87
2022-10-16T04:01:56.603Z,86.75
2022-10-16T04:04:23.518Z,87.01
2022-10-16T04:06:50.414Z,87.45
2022-10-16T04:09:17.405Z,87.36
2022-10-16T04:11:44.472Z,87.37
2022-10-16T04:14:11.425Z,86.67
2022-10-16T04:16:38.362Z,87.33
2022-10-16T04:19:05.433Z,86.89
2022-10-16T04:21:32.422Z,87.45
2022-10-16T04:23:59.356Z,87.53
2022-10-16T04:26:26.287Z,87.36
2022-10-16T04:28:53.393Z,88.69
2022-10-16T04:31:20.539Z,88.22
2022-10-16T04:33:47.840Z,88.83
2022-10-16T04:36:14.920Z,87.81
2022-10-16T04:38:41.846Z,88.37
2022-10-16T04:41:09.376Z,88.47
2022-10-16T04:43:36.486Z,87.92
2022-10-16T04:46:07.757Z,87.94
2022-10-16T04:48:34.651Z,88.38
2022-10-16T04:51:01.994Z,88.04
2022-10-16T04:53:28.997Z,87.73
2022-10-16T04:55:56.976Z,87.57
2022-10-16T04:58:24.032Z,86.77
2022-10-16T05:00:50.940Z,88.17
2022-10-16T05:03:17.970Z,89.84
2022-10-16T05:05:46.836Z,89.55
2022-10-16T05:08:15.952Z,89.52
2022-10-16T05:10:45.356Z,89.72
2022-10-16T05:13:12.913Z,90.04
2022-10-16T05:15:40.233Z,89.59
2022-10-16T05:18:07.195Z,89.75
2022-10-16T05:20:34.241Z,89.25
2022-10-16T05:23:01.296Z,89.52
2022-10-16T05:25:29.718Z,89.86
2022-10-16T05:27:57.877Z,90.27
2022-10-16T05:30:24.920Z,89.21
2022-10-16T05:32:52.470Z,89.82
2022-10-16T05:35:21.820Z,88.37
2022-10-16T05:37:49.089Z,88.54
2022-10-16T05:40:16.950Z,87.78
2022-10-16T05:42:43.917Z,89.25
2022-10-16T05:45:12.973Z,89.63
2022-10-16T05:47:40.885Z,90.29
2022-10-16T05:50:08.528Z,89.59
2022-10-16T05:52:35.533Z,89.06
2022-10-16T05:55:02.750Z,91.05
2022-10-16T05:57:29.913Z,89.73
2022-10-16T05:59:57.183Z,90.06
2022-10-16T06:02:24.178Z,90.35
2022-10-16T06:04:54.771Z,90.66
2022-10-16T06:07:22.903Z,89.79
2022-10-16T06:09:52.320Z,90.79
2022-10-16T06:12:20.323Z,90.28
2022-10-16T06:14:50.727Z,89.91
2022-10-16T06:17:17.682Z,89.77
2022-10-16T06:19:44.735Z,89.37
2022-10-16T06:22:11.674Z,89.28
2022-10-16T06:24:38.618Z,89.51
2022-10-16T06:27:06.013Z,89.27
2022-10-16T06:29:33.127Z,89.50
2022-10-16T06:32:00.121Z,89.60
2022-10-16T06:34:27.043Z,89.86
2022-10-16T06:36:54.034Z,89.70
2022-10-16T06:39:20.956Z,89.08
2022-10-16T06:41:48.054Z,89.09
2022-10-16T06:44:14.996Z,89.29
2022-10-16T06:46:42.175Z,89.19
2022-10-16T06:49:09.362Z,88.01
2022-10-16T06:51:40.507Z,88.32
2022-10-16T06:54:10.280Z,88.22
2022-10-16T06:56:37.623Z,88.65
2022-10-16T06:59:08.056Z,88.34
2022-10-16T07:01:34.967Z,88.25
2022-10-16T07:04:03.145Z,88.17
2022-10-16T07:06:34.779Z,87.72
2022-10-16T07:09:10.702Z,87.47
2022-10-16T07:11:40.607Z,87.78
2022-10-16T07:14:21.305Z,87.38
2022-10-16T07:16:49.176Z,87.14
2022-10-16T07:19:18.501Z,86.64
2022-10-16T07:21:45.871Z,86.72
2022-10-16T07:24:16.668Z,86.59
2022-10-16T07:26:47.001Z,86.41
2022-10-16T07:29:18.860Z,85.93
2022-10-16T07:31:49.822Z,86.74
2022-10-16T07:34:20.215Z,86.76
2022-10-16T07:36:51.392Z,86.77
2022-10-16T07:39:18.801Z,87.05
2022-10-16T07:41:46.074Z,86.33
2022-10-16T07:44:13.025Z,86.63
2022-10-16T07:46:40.008Z,86.21
2022-10-16T07:49:07.074Z,85.43
2022-10-16T07:51:34.095Z,85.80
2022-10-16T07:54:01.034Z,84.76
2022-10-16T07:56:28.011Z,85.71
2022-10-16T07:58:55.072Z,84.60
2022-10-16T08:01:22.352Z,86.21
2022-10-16T08:03:52.692Z,85.99
2022-10-16T08:06:26.673Z,85.73
2022-10-16T08:08:56.887Z,85.98
2022-10-16T08:11:24.570Z,86.16
2022-10-16T08:13:51.498Z,85.23
2022-10-16T08:16:18.840Z,84.55
2022-10-16T08:18:45.753Z,84.48
2022-10-16T08:21:24.791Z,84.24
2022-10-16T08:23:58.045Z,83.86
2022-10-16T08:26:27.523Z,84.66
2022-10-16T08:28:55.857Z,84.12
2022-10-16T08:31:24.026Z,84.78
2022-10-16T08:33:51.092Z,82.99
2022-10-16T08:36:18.254Z,83.72
2022-10-16T08:38:48.051Z,83.33
2022-10-16T08:41:38.170Z,83.40
2022-10-16T08:44:54.606Z,83.08
2022-10-16T08:47:52.107Z,83.36
2022-10-16T08:50:32.597Z,82.47
2022-10-16T08:52:59.848Z,82.45
2022-10-16T08:55:54.013Z,81.79
2022-10-16T08:58:27.758Z,82.98
2022-10-16T09:01:05.799Z,81.45
2022-10-16T09:04:11.422Z,81.33
2022-10-16T09:07:01.272Z,80.51
2022-10-16T09:10:03.553Z,80.10
2022-10-16T09:12:43.496Z,79.91
2022-10-16T09:15:42.335Z,78.99
2022-10-16T09:18:45.813Z,78.62
2022-10-16T09:21:33.064Z,79.06
2022-10-16T09:24:27.132Z,79.31
2022-10-16T09:26:56.172Z,78.48
2022-10-16T09:29:26.240Z,78.16
2022-10-16T09:31:55.942Z,78.29
2022-10-16T09:34:37.733Z,78.54
2022-10-16T09:37:12.682Z,78.45
2022-10-16T09:39:55.323Z,78.68
2022-10-16T09:42:37.272Z,78.85
2022-10-16T09:45:05.620Z,77.86
2022-10-16T09:47:38.378Z,78.31
2022-10-16T09:50:29.709Z,77.99
2022-10-16T09:53:18.533Z,77.34
2022-10-16T09:55:55.194Z,76.96
2022-10-16T09:58:25.798Z,77.72
2022-10-16T10:00:55.775Z,75.84
2022-10-16T10:03:40.627Z,75.13
2022-10-16T10:06:27.181Z,74.47
2022-10-16T10:09:15.713Z,73.59
2022-10-16T10:15:05.880Z,72.97
2022-10-16T10:17:32.943Z,73.74
2022-10-16T10:20:35.193Z,74.16
2022-10-16T10:23:26.619Z,75.19
2022-10-16T10:26:19.378Z,75.30
2022-10-16T10:29:09.471Z,75.06
2022-10-16T10:32:08.147Z,74.64
2022-10-16T10:35:35.680Z,75.11
2022-10-16T10:38:53.674Z,74.57
2022-10-16T10:42:13.466Z,75.01
2022-10-16T10:45:23.974Z,75.13
2022-10-16T10:48:04.385Z,73.87
2022-10-16T10:50:58.487Z,73.59
2022-10-16T10:53:46.745Z,72.13
2022-10-16T10:56:20.609Z,72.24
2022-10-16T10:59:10.392Z,71.49
2022-10-16T11:02:11.713Z,69.59
2022-10-16T11:05:28.828Z,69.09
2022-10-16T11:08:14.504Z,70.36
2022-10-16T11:11:00.934Z,70.51
2022-10-16T11:13:39.221Z,70.66
2022-10-16T11:16:32.783Z,70.80
2022-10-16T11:19:38.365Z,71.57
2022-10-16T11:22:08.270Z,70.55
2022-10-16T11:24:53.929Z,70.36
2022-10-16T11:27:45.442Z,70.63
2022-10-16T11:30:34.453Z,70.05
2022-10-16T11:33:19.252Z,70.04
2022-10-16T11:36:43.092Z,71.75
2022-10-16T11:39:27.300Z,70.44
2022-10-16T11:42:32.701Z,70.25
2022-10-16T11:45:33.500Z,67.26
2022-10-16T11:48:14.791Z,66.85
2022-10-16T11:50:54.098Z,65.27
2022-10-16T11:54:00.277Z,64.05
2022-10-16T11:56:28.716Z,64.33
2022-10-16T11:59:39.543Z,62.92
2022-10-16T12:02:31.696Z,62.37
2022-10-16T12:05:39.273Z,61.37
2022-10-16T12:08:16.016Z,61.99
2022-10-16T12:10:47.731Z,60.94
2022-10-16T12:13:37.308Z,60.58
2022-10-16T12:16:13.149Z,61.28
2022-10-16T12:18:47.046Z,58.67
2022-10-16T12:21:20.304Z,59.47
2022-10-16T12:23:55.071Z,58.33
2022-10-16T12:26:33.387Z,58.83
2022-10-16T12:29:43.914Z,59.33
2022-10-16T12:32:46.378Z,58.80
2022-10-16T12:35:45.004Z,57.27
2022-10-16T12:38:36.359Z,55.58
2022-10-16T12:41:11.684Z,55.92
2022-10-16T12:43:46.896Z,56.67
2022-10-16T12:46:13.683Z,55.63
2022-10-16T12:49:02.260Z,53.31
2022-10-16T12:51:32.458Z,54.07
2022-10-16T12:54:29.290Z,52.94
2022-10-16T12:57:45.726Z,53.82
2022-10-16T13:00:43.366Z,53.55
2022-10-16T13:04:12.795Z,52.86
2022-10-16T13:07:19.139Z,53.06
2022-10-16T13:10:04.340Z,52.94
2022-10-16T13:13:46.786Z,52.35
2022-10-16T13:16:28.458Z,52.27
2022-10-16T13:22:34.907Z,51.07
2022-10-16T13:25:47.989Z,50.46
2022-10-16T13:28:18.024Z,50.77
2022-10-16T13:30:59.086Z,50.04
2022-10-16T13:33:41.447Z,49.85
2022-10-16T13:36:25.982Z,50.52
2022-10-16T13:39:21.903Z,51.36
2022-10-16T13:44:51.087Z,52.41
2022-10-16T13:47:30.788Z,50.55
2022-10-16T13:50:19.916Z,51.60
2022-10-16T13:52:46.872Z,50.43
2022-10-16T13:55:22.821Z,52.03
2022-10-16T13:57:49.738Z,50.58
2022-10-16T14:00:31.255Z,49.83
2022-10-16T14:03:16.158Z,51.34
2022-10-16T14:05:54.215Z,51.34
2022-10-16T14:08:22.357Z,51.18
2022-10-16T14:10:57.003Z,51.15
2022-10-16T14:13:45.206Z,51.75
2022-10-16T14:16:24.433Z,51.67
2022-10-16T14:19:06.279Z,52.10
2022-10-16T14:21:35.139Z,52.20
2022-10-16T14:24:15.067Z,51.78
2022-10-16T14:26:50.491Z,52.87
2022-10-16T14:29:21.889Z,51.94
2022-10-16T14:32:01.850Z,52.43
2022-10-16T14:34:41.003Z,51.97
2022-10-16T14:37:28.625Z,51.79
2022-10-16T14:39:57.554Z,52.06
2022-10-16T14:42:26.465Z,51.19
2022-10-16T14:44:55.514Z,52.34
2022-10-16T14:47:27.815Z,52.63
2022-10-16T14:49:56.968Z,53.46
2022-10-16T14:52:24.143Z,52.32
2022-10-16T14:54:55.514Z,52.27
2022-10-16T14:57:31.876Z,54.62
2022-10-16T14:59:58.870Z,54.51
2022-10-16T15:02:36.029Z,54.02
2022-10-16T15:05:25.454Z,54.49
2022-10-16T15:07:56.344Z,55.59
2022-10-16T15:10:26.789Z,55.64
2022-10-16T15:12:54.074Z,56.18
2022-10-16T15:15:23.965Z,56.26
2022-10-16T15:17:57.610Z,56.18
2022-10-16T15:20:39.452Z,56.75
2022-10-16T15:23:22.984Z,58.01
2022-10-16T15:25:55.150Z,59.90
2022-10-16T15:28:25.286Z,58.84
2022-10-16T15:30:55.748Z,58.60
2022-10-16T15:33:38.931Z,59.95
2022-10-16T15:36:08.741Z,59.91
2022-10-16T15:38:36.057Z,59.50
2022-10-16T15:41:03.128Z,61.71
2022-10-16T15:43:30.066Z,59.84
2022-10-16T15:46:09.530Z,61.87
2022-10-16T15:48:36.459Z,60.48
2022-10-16T15:51:08.771Z,60.47
2022-10-16T15:53:36.559Z,60.54
2022-10-16T15:56:05.980Z,60.41
2022-10-16T15:58:33.188Z,61.03
2022-10-16T16:01:02.501Z,62.01
2022-10-16T16:03:30.580Z,62.35
2022-10-16T16:05:57.740Z,62.54
2022-10-16T16:08:25.073Z,62.87
2022-10-16T16:11:13.257Z,62.46
2022-10-16T16:13:42.035Z,62.37
2022-10-16T16:16:12.938Z,63.72
2022-10-16T16:18:40.365Z,64.91
2022-10-16T16:21:08.089Z,64.40
2022-10-16T16:23:36.107Z,64.61
2022-10-16T16:26:14.988Z,64.68
2022-10-16T16:28:44.078Z,66.82
2022-10-16T16:31:11.324Z,66.89
2022-10-16T16:33:38.278Z,68.03
2022-10-16T16:36:11.591Z,67.63
2022-10-16T16:38:41.570Z,68.52
2022-10-16T16:41:24.111Z,68.64
2022-10-16T16:43:53.995Z,68.57
2022-10-16T16:46:22.895Z,68.89
2022-10-16T16:48:54.481Z,69.45
2022-10-16T16:51:21.467Z,70.11
2022-10-16T16:53:53.217Z,70.08
2022-10-16T16:56:24.008Z,71.63
2022-10-16T16:58:55.535Z,72.59
2022-10-16T17:01:25.414Z,72.96
2022-10-16T17:03:55.991Z,73.14
2022-10-16T17:06:30.353Z,73.20
2022-10-16T17:08:57.769Z,73.75
2022-10-16T17:11:27.991Z,73.63
2022-10-16T17:13:58.743Z,74.32
2022-10-16T17:16:35.086Z,76.17
2022-10-16T17:19:12.197Z,77.17
2022-10-16T17:21:39.366Z,77.04
2022-10-16T17:24:07.553Z,78.07
2022-10-16T17:26:38.267Z,77.85
2022-10-16T17:29:06.323Z,77.84
2022-10-16T17:31:36.768Z,76.78
2022-10-16T17:34:08.368Z,75.75
2022-10-16T17:36:38.948Z,75.83
2022-10-16T17:39:10.961Z,76.55
2022-10-16T17:41:38.706Z,77.57
2022-10-16T17:44:07.167Z,78.55
2022-10-16T17:46:38.314Z,80.05
2022-10-16T17:49:09.432Z,80.99
2022-10-16T17:51:36.576Z,81.60
2022-10-16T17:54:03.654Z,82.35
2022-10-16T17:56:31.411Z,83.05
2022-10-16T17:59:01.704Z,82.64
2022-10-16T18:01:37.224Z,82.95
2022-10-16T18:04:13.002Z,81.97
2022-10-16T18:06:44.208Z,81.81
2022-10-16T18:09:15.837Z,81.85
2022-10-16T18:11:42.772Z,82.09
2022-10-16T18:14:13.981Z,81.46
2022-10-16T18:16:41.248Z,82.08
2022-10-16T18:19:10.057Z,82.24
2022-10-16T18:21:37.085Z,81.88
2022-10-16T18:24:04.249Z,79.61
2022-10-16T18:26:31.224Z,79.18
2022-10-16T18:28:58.943Z,80.10
2022-10-16T18:31:26.713Z,81.04
2022-10-16T18:33:54.400Z,82.69
2022-10-16T18:36:32.738Z,82.31
2022-10-16T18:39:04.385Z,82.77
2022-10-16T18:41:32.628Z,83.15
2022-10-16T18:43:59.591Z,81.42
2022-10-16T18:46:27.147Z,80.19
2022-10-16T18:48:56.315Z,80.60
2022-10-16T18:51:29.586Z,79.77
2022-10-16T18:54:00.651Z,83.06
2022-10-16T18:56:31.091Z,83.17
2022-10-16T18:59:02.427Z,84.31
2022-10-16T19:01:32.631Z,85.00
2022-10-16T19:04:08.330Z,84.88
2022-10-16T19:06:46.070Z,84.85
2022-10-16T19:09:15.402Z,85.57
2022-10-16T19:11:43.792Z,86.12
2022-10-16T19:14:12.906Z,86.03
2022-10-16T19:16:42.632Z,86.56
2022-10-16T19:19:18.462Z,86.46
2022-10-16T19:21:47.679Z,84.69
2022-10-16T19:24:16.660Z,84.02
2022-10-16T19:26:44.111Z,84.22
2022-10-16T19:29:11.819Z,85.84
2022-10-16T19:31:39.497Z,85.67
2022-10-16T19:34:07.574Z,86.30
2022-10-16T19:36:38.043Z,85.94
2022-10-16T19:39:12.815Z,86.08
2022-10-16T19:41:39.855Z,87.08
2022-10-16T19:44:11.217Z,87.05
2022-10-16T19:46:38.913Z,87.90
2022-10-16T19:49:11.906Z,86.96
2022-10-16T19:51:40.117Z,86.15
2022-10-16T19:54:12.974Z,85.11
2022-10-16T19:56:41.463Z,85.52
2022-10-16T19:59:12.691Z,84.88
2022-10-16T20:01:39.774Z,84.88
2022-10-16T20:04:06.782Z,82.99
2022-10-16T20:06:33.855Z,84.17
2022-10-16T20:09:00.892Z,84.01
2022-10-16T20:11:32.530Z,85.27
2022-10-16T20:14:00.375Z,86.10
2022-10-16T20:16:30.846Z,86.63
2022-10-16T20:18:59.093Z,85.13
2022-10-16T20:21:35.355Z,84.66
2022-10-16T20:24:07.041Z,82.15
2022-10-16T20:26:34.266Z,83.74
2022-10-16T20:29:02.113Z,85.27
2022-10-16T20:31:31.663Z,85.79
2022-10-16T20:34:07.049Z,86.69
2022-10-16T20:36:36.906Z,87.09
2022-10-16T20:39:06.786Z,87.34
2022-10-16T20:41:36.006Z,84.55
2022-10-16T20:44:04.227Z,83.16
2022-10-16T20:46:31.198Z,84.86
2022-10-16T20:49:06.177Z,85.75
2022-10-16T20:51:39.012Z,86.15
2022-10-16T20:54:07.432Z,86.19
2022-10-16T20:56:36.569Z,86.44
2022-10-16T20:59:05.094Z,86.46
2022-10-16T21:01:32.233Z,85.15
2022-10-16T21:04:01.926Z,85.52
2022-10-16T21:06:31.734Z,86.68
2022-10-16T21:09:02.937Z,86.57
2022-10-16T21:11:33.696Z,86.26
2022-10-16T21:14:05.282Z,85.18
2022-10-16T21:16:32.489Z,86.30
2022-10-16T21:18:59.527Z,85.62
2022-10-16T21:21:31.368Z,86.32
2022-10-16T21:23:59.713Z,86.27
2022-10-16T21:26:28.642Z,87.26
2022-10-16T21:29:05.655Z,87.05
2022-10-16T21:31:33.954Z,86.44
2022-10-16T21:34:01.041Z,87.03
2022-10-16T21:36:32.237Z,87.01
2022-10-16T21:39:15.022Z,85.50
2022-10-16T21:41:45.012Z,84.56
2022-10-16T21:44:13.214Z,85.51
2022-10-16T21:46:43.595Z,84.61
2022-10-16T21:49:19.261Z,84.07
2022-10-16T21:51:50.531Z,84.65
2022-10-16T21:54:23.835Z,86.13
2022-10-16T21:56:52.268Z,86.52
2022-10-16T21:59:19.737Z,87.25
2022-10-16T22:01:47.295Z,86.44
2022-10-16T22:04:16.593Z,84.90
2022-10-16T22:06:44.094Z,84.12
2022-10-16T22:09:14.205Z,84.07
2022-10-16T22:11:44.419Z,85.85
2022-10-16T22:14:16.703Z,86.52
2022-10-16T22:16:44.687Z,86.57
2022-10-16T22:19:14.627Z,86.77
2022-10-16T22:21:43.167Z,87.31
2022-10-16T22:24:10.515Z,85.77
2022-10-16T22:26:38.601Z,85.40
2022-10-16T22:29:07.882Z,85.11
2022-10-16T22:31:35.271Z,85.77
2022-10-16T22:34:04.213Z,85.18
2022-10-16T22:36:32.423Z,84.07
2022-10-16T22:38:59.750Z,83.87
2022-10-16T22:41:26.979Z,84.74
2022-10-16T22:43:53.986Z,85.49
2022-10-16T22:46:27.296Z,86.21
2022-10-16T22:48:56.016Z,86.19
2022-10-16T22:51:25.043Z,85.95
2022-10-16T22:53:52.145Z,84.33
2022-10-16T22:56:21.938Z,85.79
2022-10-16T22:58:49.744Z,86.70
2022-10-16T23:01:24.088Z,85.74
2022-10-16T23:03:51.070Z,87.02
2022-10-16T23:06:17.969Z,86.17
2022-10-16T23:08:44.894Z,85.62
2022-10-16T23:11:13.246Z,86.69
2022-10-16T23:13:45.524Z,85.07
2022-10-16T23:16:17.496Z,85.47
2022-10-16T23:18:46.018Z,83.48
2022-10-16T23:21:25.135Z,85.58
2022-10-16T23:23:54.375Z,86.24
2022-10-16T23:26:26.283Z,85.65
2022-10-16T23:28:55.434Z,86.95
2022-10-16T23:31:22.558Z,86.32
2022-10-16T23:33:49.815Z,85.58
2022-10-16T23:36:20.941Z,84.94
2022-10-16T23:38:49.045Z,85.34
2022-10-16T23:41:17.928Z,86.08
2022-10-16T23:43:45.058Z,85.06
2022-10-16T23:46:14.479Z,85.78
2022-10-16T23:48:41.625Z,85.01
2022-10-16T23:51:09.874Z,84.74
2022-10-16T23:53:38.289Z,84.80
2022-10-16T23:56:05.569Z,84.79
2022-10-16T23:58:32.456Z,85.21
